sensor_id;sensor_type;location;lat;lon;timestamp;P1;durP1;ratioP1;P2;durP2;ratioP2
17686;SDS011;8962;52.538;13.266;2023-07-28T00:00:51;2.22;;;1.80;;
17686;SDS011;8962;52.538;13.266;2023-07-28T00:03:19;2.03;;;1.80;;
17686;SDS011;8962;52.538;13.266;2023-07-28T00:05:46;2.72;;;2.40;;
17686;SDS011;8962;52.538;13.266;2023-07-28T00:08:14;4.28;;;2.60;;
17686;SDS011;8962;52.538;13.266;2023-07-28T00:10:42;2.50;;;2.20;;
17686;SDS011;8962;52.538;13.266;2023-07-28T00:13:09;2.58;;;2.38;;
17686;SDS011;8962;52.538;13.266;2023-07-28T00:15:38;3.20;;;2.40;;
17686;SDS011;8962;52.538;13.266;2023-07-28T00:18:05;3.17;;;2.47;;
17686;SDS011;8962;52.538;13.266;2023-07-28T00:20:33;2.50;;;2.30;;
17686;SDS011;8962;52.538;13.266;2023-07-28T00:23:00;3.25;;;2.72;;
17686;SDS011;8962;52.538;13.266;2023-07-28T00:25:28;4.43;;;3.03;;
17686;SDS011;8962;52.538;13.266;2023-07-28T00:27:56;3.78;;;3.25;;
17686;SDS011;8962;52.538;13.266;2023-07-28T00:30:24;4.20;;;3.00;;
17686;SDS011;8962;52.538;13.266;2023-07-28T00:32:52;3.72;;;3.00;;
17686;SDS011;8962;52.538;13.266;2023-07-28T00:35:19;4.13;;;2.55;;
17686;SDS011;8962;52.538;13.266;2023-07-28T00:37:46;3.75;;;2.80;;
17686;SDS011;8962;52.538;13.266;2023-07-28T00:40:13;4.18;;;2.85;;
17686;SDS011;8962;52.538;13.266;2023-07-28T00:42:41;6.30;;;2.90;;
17686;SDS011;8962;52.538;13.266;2023-07-28T00:45:10;4.15;;;2.83;;
17686;SDS011;8962;52.538;13.266;2023-07-28T00:47:38;4.80;;;2.83;;
17686;SDS011;8962;52.538;13.266;2023-07-28T00:50:06;4.28;;;2.80;;
17686;SDS011;8962;52.538;13.266;2023-07-28T00:52:35;6.00;;;2.50;;
17686;SDS011;8962;52.538;13.266;2023-07-28T00:55:03;4.45;;;2.88;;
17686;SDS011;8962;52.538;13.266;2023-07-28T00:57:32;3.08;;;2.38;;
17686;SDS011;8962;52.538;13.266;2023-07-28T01:00:00;3.20;;;2.63;;
17686;SDS011;8962;52.538;13.266;2023-07-28T01:02:30;2.95;;;2.38;;
17686;SDS011;8962;52.538;13.266;2023-07-28T01:04:59;5.70;;;2.70;;
17686;SDS011;8962;52.538;13.266;2023-07-28T01:07:27;3.63;;;2.42;;
17686;SDS011;8962;52.538;13.266;2023-07-28T01:10:05;4.88;;;2.88;;
17686;SDS011;8962;52.538;13.266;2023-07-28T01:12:37;3.20;;;2.35;;
17686;SDS011;8962;52.538;13.266;2023-07-28T01:15:04;6.22;;;2.50;;
17686;SDS011;8962;52.538;13.266;2023-07-28T01:17:35;4.65;;;2.50;;
17686;SDS011;8962;52.538;13.266;2023-07-28T01:20:03;3.47;;;2.60;;
17686;SDS011;8962;52.538;13.266;2023-07-28T01:22:39;4.40;;;2.50;;
17686;SDS011;8962;52.538;13.266;2023-07-28T01:25:27;5.50;;;2.63;;
17686;SDS011;8962;52.538;13.266;2023-07-28T01:28:08;4.30;;;2.50;;
17686;SDS011;8962;52.538;13.266;2023-07-28T01:30:38;4.25;;;3.03;;
17686;SDS011;8962;52.538;13.266;2023-07-28T01:33:06;7.63;;;3.00;;
17686;SDS011;8962;52.538;13.266;2023-07-28T01:35:35;7.88;;;3.30;;
17686;SDS011;8962;52.538;13.266;2023-07-28T01:38:04;3.20;;;2.67;;
17686;SDS011;8962;52.538;13.266;2023-07-28T01:40:33;5.47;;;2.97;;
17686;SDS011;8962;52.538;13.266;2023-07-28T01:43:00;4.05;;;3.03;;
17686;SDS011;8962;52.538;13.266;2023-07-28T01:45:29;5.18;;;3.40;;
17686;SDS011;8962;52.538;13.266;2023-07-28T01:47:56;4.45;;;3.10;;
17686;SDS011;8962;52.538;13.266;2023-07-28T01:50:23;7.57;;;3.72;;
17686;SDS011;8962;52.538;13.266;2023-07-28T01:52:50;5.20;;;3.63;;
17686;SDS011;8962;52.538;13.266;2023-07-28T01:55:22;5.93;;;4.00;;
17686;SDS011;8962;52.538;13.266;2023-07-28T01:57:50;4.88;;;3.47;;
17686;SDS011;8962;52.538;13.266;2023-07-28T02:00:22;7.28;;;4.30;;
17686;SDS011;8962;52.538;13.266;2023-07-28T02:02:51;9.95;;;4.45;;
17686;SDS011;8962;52.538;13.266;2023-07-28T02:05:19;7.03;;;3.90;;
17686;SDS011;8962;52.538;13.266;2023-07-28T02:07:47;6.65;;;4.80;;
17686;SDS011;8962;52.538;13.266;2023-07-28T02:10:14;7.82;;;4.63;;
17686;SDS011;8962;52.538;13.266;2023-07-28T02:12:41;9.02;;;5.40;;
17686;SDS011;8962;52.538;13.266;2023-07-28T02:15:10;9.15;;;5.28;;
17686;SDS011;8962;52.538;13.266;2023-07-28T02:17:38;10.95;;;5.65;;
17686;SDS011;8962;52.538;13.266;2023-07-28T02:20:07;9.82;;;6.30;;
17686;SDS011;8962;52.538;13.266;2023-07-28T02:22:38;8.82;;;5.90;;
17686;SDS011;8962;52.538;13.266;2023-07-28T02:25:06;7.38;;;5.75;;
17686;SDS011;8962;52.538;13.266;2023-07-28T02:27:33;9.10;;;6.10;;
17686;SDS011;8962;52.538;13.266;2023-07-28T02:30:01;12.23;;;6.47;;
17686;SDS011;8962;52.538;13.266;2023-07-28T02:32:28;8.40;;;5.65;;
17686;SDS011;8962;52.538;13.266;2023-07-28T02:34:56;8.18;;;5.93;;
17686;SDS011;8962;52.538;13.266;2023-07-28T02:37:24;9.20;;;6.05;;
17686;SDS011;8962;52.538;13.266;2023-07-28T02:39:52;7.97;;;6.40;;
17686;SDS011;8962;52.538;13.266;2023-07-28T02:42:20;10.98;;;6.40;;
17686;SDS011;8962;52.538;13.266;2023-07-28T02:44:49;9.10;;;6.57;;
17686;SDS011;8962;52.538;13.266;2023-07-28T02:47:16;8.55;;;6.13;;
17686;SDS011;8962;52.538;13.266;2023-07-28T02:49:44;8.27;;;5.95;;
17686;SDS011;8962;52.538;13.266;2023-07-28T02:52:12;13.43;;;6.82;;
17686;SDS011;8962;52.538;13.266;2023-07-28T02:54:41;12.25;;;6.93;;
17686;SDS011;8962;52.538;13.266;2023-07-28T02:57:09;9.43;;;7.03;;
17686;SDS011;8962;52.538;13.266;2023-07-28T02:59:39;10.98;;;6.93;;
17686;SDS011;8962;52.538;13.266;2023-07-28T03:02:06;11.95;;;6.82;;
17686;SDS011;8962;52.538;13.266;2023-07-28T03:04:34;10.30;;;7.13;;
17686;SDS011;8962;52.538;13.266;2023-07-28T03:07:12;11.88;;;7.05;;
17686;SDS011;8962;52.538;13.266;2023-07-28T03:09:43;11.40;;;7.10;;
17686;SDS011;8962;52.538;13.266;2023-07-28T03:12:10;10.20;;;6.97;;
17686;SDS011;8962;52.538;13.266;2023-07-28T03:14:39;9.75;;;7.25;;
17686;SDS011;8962;52.538;13.266;2023-07-28T03:17:07;10.65;;;7.78;;
17686;SDS011;8962;52.538;13.266;2023-07-28T03:19:34;11.52;;;7.50;;
17686;SDS011;8962;52.538;13.266;2023-07-28T03:22:03;9.65;;;6.78;;
17686;SDS011;8962;52.538;13.266;2023-07-28T03:24:30;13.35;;;7.82;;
17686;SDS011;8962;52.538;13.266;2023-07-28T03:27:01;11.30;;;7.82;;
17686;SDS011;8962;52.538;13.266;2023-07-28T03:29:29;10.18;;;8.00;;
17686;SDS011;8962;52.538;13.266;2023-07-28T03:31:56;13.77;;;7.60;;
17686;SDS011;8962;52.538;13.266;2023-07-28T03:34:23;15.43;;;7.80;;
17686;SDS011;8962;52.538;13.266;2023-07-28T03:36:52;10.10;;;7.38;;
17686;SDS011;8962;52.538;13.266;2023-07-28T03:39:20;10.27;;;7.45;;
17686;SDS011;8962;52.538;13.266;2023-07-28T03:41:49;10.77;;;8.68;;
17686;SDS011;8962;52.538;13.266;2023-07-28T03:44:18;10.70;;;8.05;;
17686;SDS011;8962;52.538;13.266;2023-07-28T03:46:46;13.38;;;8.85;;
17686;SDS011;8962;52.538;13.266;2023-07-28T03:49:13;13.82;;;9.30;;
17686;SDS011;8962;52.538;13.266;2023-07-28T03:51:41;12.38;;;8.52;;
17686;SDS011;8962;52.538;13.266;2023-07-28T03:54:10;12.05;;;8.80;;
17686;SDS011;8962;52.538;13.266;2023-07-28T03:56:38;12.90;;;8.88;;
17686;SDS011;8962;52.538;13.266;2023-07-28T03:59:06;12.32;;;8.77;;
17686;SDS011;8962;52.538;13.266;2023-07-28T04:01:34;11.38;;;8.65;;
17686;SDS011;8962;52.538;13.266;2023-07-28T04:04:04;12.55;;;8.73;;
17686;SDS011;8962;52.538;13.266;2023-07-28T04:06:40;11.18;;;8.23;;
17686;SDS011;8962;52.538;13.266;2023-07-28T04:09:09;14.10;;;8.35;;
17686;SDS011;8962;52.538;13.266;2023-07-28T04:11:37;11.48;;;8.05;;
17686;SDS011;8962;52.538;13.266;2023-07-28T04:14:04;10.75;;;7.90;;
17686;SDS011;8962;52.538;13.266;2023-07-28T04:16:32;11.50;;;7.88;;
17686;SDS011;8962;52.538;13.266;2023-07-28T04:19:01;14.35;;;8.02;;
17686;SDS011;8962;52.538;13.266;2023-07-28T04:21:29;10.43;;;8.25;;
17686;SDS011;8962;52.538;13.266;2023-07-28T04:23:56;10.48;;;8.10;;
17686;SDS011;8962;52.538;13.266;2023-07-28T04:26:24;12.27;;;8.40;;
17686;SDS011;8962;52.538;13.266;2023-07-28T04:29:00;12.70;;;8.13;;
17686;SDS011;8962;52.538;13.266;2023-07-28T04:31:28;15.00;;;8.07;;
17686;SDS011;8962;52.538;13.266;2023-07-28T04:34:06;11.43;;;8.00;;
17686;SDS011;8962;52.538;13.266;2023-07-28T04:36:52;12.32;;;8.25;;
17686;SDS011;8962;52.538;13.266;2023-07-28T04:39:24;13.45;;;8.00;;
17686;SDS011;8962;52.538;13.266;2023-07-28T04:41:51;10.75;;;7.97;;
17686;SDS011;8962;52.538;13.266;2023-07-28T04:44:19;12.73;;;8.43;;
17686;SDS011;8962;52.538;13.266;2023-07-28T04:46:54;10.43;;;8.43;;
17686;SDS011;8962;52.538;13.266;2023-07-28T04:49:22;11.13;;;8.23;;
17686;SDS011;8962;52.538;13.266;2023-07-28T04:52:08;12.68;;;8.82;;
17686;SDS011;8962;52.538;13.266;2023-07-28T04:55:11;17.48;;;9.57;;
17686;SDS011;8962;52.538;13.266;2023-07-28T04:57:39;12.35;;;9.38;;
17686;SDS011;8962;52.538;13.266;2023-07-28T05:00:07;12.20;;;8.60;;
17686;SDS011;8962;52.538;13.266;2023-07-28T05:02:35;13.90;;;8.20;;
17686;SDS011;8962;52.538;13.266;2023-07-28T05:05:03;10.30;;;7.57;;
17686;SDS011;8962;52.538;13.266;2023-07-28T05:07:31;11.88;;;8.77;;
17686;SDS011;8962;52.538;13.266;2023-07-28T05:09:58;9.90;;;8.43;;
17686;SDS011;8962;52.538;13.266;2023-07-28T05:12:27;11.15;;;8.95;;
17686;SDS011;8962;52.538;13.266;2023-07-28T05:14:55;12.23;;;8.73;;
17686;SDS011;8962;52.538;13.266;2023-07-28T05:17:22;11.27;;;8.80;;
17686;SDS011;8962;52.538;13.266;2023-07-28T05:20:15;11.45;;;8.65;;
17686;SDS011;8962;52.538;13.266;2023-07-28T05:22:49;11.20;;;8.73;;
17686;SDS011;8962;52.538;13.266;2023-07-28T05:25:18;12.70;;;8.55;;
17686;SDS011;8962;52.538;13.266;2023-07-28T05:27:47;11.52;;;8.18;;
17686;SDS011;8962;52.538;13.266;2023-07-28T05:30:15;11.43;;;7.95;;
17686;SDS011;8962;52.538;13.266;2023-07-28T05:32:42;10.82;;;8.30;;
17686;SDS011;8962;52.538;13.266;2023-07-28T05:35:22;10.73;;;8.60;;
17686;SDS011;8962;52.538;13.266;2023-07-28T05:37:50;12.23;;;7.80;;
17686;SDS011;8962;52.538;13.266;2023-07-28T05:40:18;10.55;;;7.32;;
17686;SDS011;8962;52.538;13.266;2023-07-28T05:42:45;8.98;;;7.28;;
17686;SDS011;8962;52.538;13.266;2023-07-28T05:45:13;13.00;;;8.52;;
17686;SDS011;8962;52.538;13.266;2023-07-28T05:47:40;10.30;;;7.55;;
17686;SDS011;8962;52.538;13.266;2023-07-28T05:50:10;10.82;;;7.47;;
17686;SDS011;8962;52.538;13.266;2023-07-28T05:52:38;10.98;;;7.40;;
17686;SDS011;8962;52.538;13.266;2023-07-28T05:55:05;11.55;;;7.90;;
17686;SDS011;8962;52.538;13.266;2023-07-28T05:57:34;11.02;;;7.53;;
17686;SDS011;8962;52.538;13.266;2023-07-28T06:00:05;11.45;;;7.80;;
17686;SDS011;8962;52.538;13.266;2023-07-28T06:02:39;9.60;;;6.95;;
17686;SDS011;8962;52.538;13.266;2023-07-28T06:05:09;9.88;;;6.70;;
17686;SDS011;8962;52.538;13.266;2023-07-28T06:07:38;12.02;;;7.25;;
17686;SDS011;8962;52.538;13.266;2023-07-28T06:10:06;9.65;;;7.70;;
17686;SDS011;8962;52.538;13.266;2023-07-28T06:12:35;10.95;;;7.68;;
17686;SDS011;8962;52.538;13.266;2023-07-28T06:15:04;13.50;;;7.35;;
17686;SDS011;8962;52.538;13.266;2023-07-28T06:17:35;11.55;;;7.97;;
17686;SDS011;8962;52.538;13.266;2023-07-28T06:20:03;13.23;;;7.72;;
17686;SDS011;8962;52.538;13.266;2023-07-28T06:22:31;14.75;;;7.68;;
17686;SDS011;8962;52.538;13.266;2023-07-28T06:25:00;8.30;;;6.80;;
17686;SDS011;8962;52.538;13.266;2023-07-28T06:27:28;10.75;;;7.28;;
17686;SDS011;8962;52.538;13.266;2023-07-28T06:29:55;10.35;;;7.07;;
17686;SDS011;8962;52.538;13.266;2023-07-28T06:32:22;10.95;;;6.82;;
17686;SDS011;8962;52.538;13.266;2023-07-28T06:34:49;13.82;;;7.05;;
17686;SDS011;8962;52.538;13.266;2023-07-28T06:37:17;7.30;;;6.45;;
17686;SDS011;8962;52.538;13.266;2023-07-28T06:39:44;7.38;;;6.47;;
17686;SDS011;8962;52.538;13.266;2023-07-28T06:42:13;10.88;;;6.47;;
17686;SDS011;8962;52.538;13.266;2023-07-28T06:44:42;7.60;;;5.97;;
17686;SDS011;8962;52.538;13.266;2023-07-28T06:47:12;8.93;;;6.05;;
17686;SDS011;8962;52.538;13.266;2023-07-28T06:49:39;8.55;;;6.20;;
17686;SDS011;8962;52.538;13.266;2023-07-28T06:52:07;8.13;;;5.50;;
17686;SDS011;8962;52.538;13.266;2023-07-28T06:54:36;5.82;;;4.72;;
17686;SDS011;8962;52.538;13.266;2023-07-28T06:57:06;5.68;;;4.40;;
17686;SDS011;8962;52.538;13.266;2023-07-28T06:59:35;5.38;;;4.05;;
17686;SDS011;8962;52.538;13.266;2023-07-28T07:02:03;7.47;;;4.70;;
17686;SDS011;8962;52.538;13.266;2023-07-28T07:04:31;6.88;;;4.38;;
17686;SDS011;8962;52.538;13.266;2023-07-28T07:07:00;7.78;;;4.47;;
17686;SDS011;8962;52.538;13.266;2023-07-28T07:09:27;6.60;;;4.47;;
17686;SDS011;8962;52.538;13.266;2023-07-28T07:11:55;6.45;;;4.10;;
17686;SDS011;8962;52.538;13.266;2023-07-28T07:14:23;7.57;;;4.30;;
17686;SDS011;8962;52.538;13.266;2023-07-28T07:16:51;6.22;;;4.38;;
17686;SDS011;8962;52.538;13.266;2023-07-28T07:19:21;7.30;;;4.38;;
17686;SDS011;8962;52.538;13.266;2023-07-28T07:21:48;7.35;;;3.80;;
17686;SDS011;8962;52.538;13.266;2023-07-28T07:24:16;4.93;;;3.88;;
17686;SDS011;8962;52.538;13.266;2023-07-28T07:26:43;5.63;;;4.07;;
17686;SDS011;8962;52.538;13.266;2023-07-28T07:29:10;6.57;;;3.60;;
17686;SDS011;8962;52.538;13.266;2023-07-28T07:31:37;7.38;;;3.33;;
17686;SDS011;8962;52.538;13.266;2023-07-28T07:34:07;6.68;;;3.13;;
17686;SDS011;8962;52.538;13.266;2023-07-28T07:36:34;5.38;;;2.97;;
17686;SDS011;8962;52.538;13.266;2023-07-28T07:39:02;4.15;;;3.00;;
17686;SDS011;8962;52.538;13.266;2023-07-28T07:41:30;3.10;;;2.72;;
17686;SDS011;8962;52.538;13.266;2023-07-28T07:44:01;4.38;;;2.35;;
17686;SDS011;8962;52.538;13.266;2023-07-28T07:46:29;3.50;;;2.65;;
17686;SDS011;8962;52.538;13.266;2023-07-28T07:48:57;5.05;;;2.72;;
17686;SDS011;8962;52.538;13.266;2023-07-28T07:51:25;5.65;;;3.00;;
17686;SDS011;8962;52.538;13.266;2023-07-28T07:53:52;4.18;;;2.80;;
17686;SDS011;8962;52.538;13.266;2023-07-28T07:56:20;5.25;;;2.80;;
17686;SDS011;8962;52.538;13.266;2023-07-28T07:58:47;4.70;;;2.60;;
17686;SDS011;8962;52.538;13.266;2023-07-28T08:01:14;5.47;;;2.60;;
17686;SDS011;8962;52.538;13.266;2023-07-28T08:03:41;3.08;;;2.70;;
17686;SDS011;8962;52.538;13.266;2023-07-28T08:06:08;5.13;;;2.40;;
17686;SDS011;8962;52.538;13.266;2023-07-28T08:08:38;5.68;;;2.30;;
17686;SDS011;8962;52.538;13.266;2023-07-28T08:11:06;6.72;;;3.03;;
17686;SDS011;8962;52.538;13.266;2023-07-28T08:13:34;4.57;;;2.50;;
17686;SDS011;8962;52.538;13.266;2023-07-28T08:16:01;3.60;;;2.50;;
17686;SDS011;8962;52.538;13.266;2023-07-28T08:18:28;3.20;;;2.00;;
17686;SDS011;8962;52.538;13.266;2023-07-28T08:20:56;3.85;;;1.90;;
17686;SDS011;8962;52.538;13.266;2023-07-28T08:23:24;2.70;;;1.60;;
17686;SDS011;8962;52.538;13.266;2023-07-28T08:25:52;2.53;;;1.80;;
17686;SDS011;8962;52.538;13.266;2023-07-28T08:28:20;3.40;;;2.00;;
17686;SDS011;8962;52.538;13.266;2023-07-28T08:30:53;4.10;;;2.22;;
17686;SDS011;8962;52.538;13.266;2023-07-28T08:33:21;5.72;;;2.17;;
17686;SDS011;8962;52.538;13.266;2023-07-28T08:35:48;4.72;;;2.10;;
17686;SDS011;8962;52.538;13.266;2023-07-28T08:38:16;3.45;;;2.17;;
17686;SDS011;8962;52.538;13.266;2023-07-28T08:40:43;4.47;;;2.17;;
17686;SDS011;8962;52.538;13.266;2023-07-28T08:43:12;2.35;;;1.70;;
17686;SDS011;8962;52.538;13.266;2023-07-28T08:45:39;5.97;;;3.05;;
17686;SDS011;8962;52.538;13.266;2023-07-28T08:48:06;6.13;;;2.40;;
17686;SDS011;8962;52.538;13.266;2023-07-28T08:50:34;13.85;;;1.85;;
17686;SDS011;8962;52.538;13.266;2023-07-28T08:53:01;2.08;;;1.88;;
17686;SDS011;8962;52.538;13.266;2023-07-28T08:55:28;5.60;;;3.50;;
17686;SDS011;8962;52.538;13.266;2023-07-28T08:57:56;9.00;;;3.28;;
17686;SDS011;8962;52.538;13.266;2023-07-28T09:00:42;3.65;;;2.30;;
17686;SDS011;8962;52.538;13.266;2023-07-28T09:03:12;6.38;;;2.50;;
17686;SDS011;8962;52.538;13.266;2023-07-28T09:05:40;4.68;;;2.35;;
17686;SDS011;8962;52.538;13.266;2023-07-28T09:08:08;2.88;;;2.13;;
17686;SDS011;8962;52.538;13.266;2023-07-28T09:10:43;6.75;;;2.50;;
17686;SDS011;8962;52.538;13.266;2023-07-28T09:13:12;6.53;;;2.15;;
17686;SDS011;8962;52.538;13.266;2023-07-28T09:15:41;4.53;;;2.47;;
17686;SDS011;8962;52.538;13.266;2023-07-28T09:18:08;5.28;;;3.10;;
17686;SDS011;8962;52.538;13.266;2023-07-28T09:20:38;2.80;;;2.25;;
17686;SDS011;8962;52.538;13.266;2023-07-28T09:23:06;7.38;;;3.95;;
17686;SDS011;8962;52.538;13.266;2023-07-28T09:25:35;11.65;;;5.25;;
17686;SDS011;8962;52.538;13.266;2023-07-28T09:28:03;5.32;;;3.83;;
17686;SDS011;8962;52.538;13.266;2023-07-28T09:30:44;7.97;;;4.18;;
17686;SDS011;8962;52.538;13.266;2023-07-28T09:33:14;3.03;;;2.35;;
17686;SDS011;8962;52.538;13.266;2023-07-28T09:35:55;2.92;;;2.20;;
17686;SDS011;8962;52.538;13.266;2023-07-28T09:38:22;3.67;;;2.85;;
17686;SDS011;8962;52.538;13.266;2023-07-28T09:40:53;2.53;;;2.10;;
17686;SDS011;8962;52.538;13.266;2023-07-28T09:43:22;2.53;;;1.95;;
17686;SDS011;8962;52.538;13.266;2023-07-28T09:45:51;7.40;;;2.53;;
17686;SDS011;8962;52.538;13.266;2023-07-28T09:48:18;4.65;;;2.50;;
17686;SDS011;8962;52.538;13.266;2023-07-28T09:50:46;4.10;;;2.67;;
17686;SDS011;8962;52.538;13.266;2023-07-28T09:53:13;3.50;;;2.25;;
17686;SDS011;8962;52.538;13.266;2023-07-28T09:55:42;3.88;;;2.53;;
17686;SDS011;8962;52.538;13.266;2023-07-28T09:58:10;4.60;;;2.30;;
17686;SDS011;8962;52.538;13.266;2023-07-28T10:00:43;5.68;;;2.50;;
17686;SDS011;8962;52.538;13.266;2023-07-28T10:03:13;3.95;;;2.67;;
17686;SDS011;8962;52.538;13.266;2023-07-28T10:05:42;5.07;;;2.97;;
17686;SDS011;8962;52.538;13.266;2023-07-28T10:08:10;3.90;;;2.92;;
17686;SDS011;8962;52.538;13.266;2023-07-28T10:10:37;4.63;;;2.70;;
17686;SDS011;8962;52.538;13.266;2023-07-28T10:13:18;4.93;;;2.90;;
17686;SDS011;8962;52.538;13.266;2023-07-28T10:15:47;3.00;;;2.45;;
17686;SDS011;8962;52.538;13.266;2023-07-28T10:18:16;6.60;;;2.70;;
17686;SDS011;8962;52.538;13.266;2023-07-28T10:20:47;5.15;;;2.90;;
17686;SDS011;8962;52.538;13.266;2023-07-28T10:23:17;3.83;;;2.97;;
17686;SDS011;8962;52.538;13.266;2023-07-28T10:25:55;4.97;;;2.92;;
17686;SDS011;8962;52.538;13.266;2023-07-28T10:28:25;6.38;;;3.28;;
17686;SDS011;8962;52.538;13.266;2023-07-28T10:30:57;3.97;;;2.78;;
17686;SDS011;8962;52.538;13.266;2023-07-28T10:33:32;4.78;;;2.60;;
17686;SDS011;8962;52.538;13.266;2023-07-28T10:36:14;3.95;;;2.70;;
17686;SDS011;8962;52.538;13.266;2023-07-28T10:38:42;5.63;;;2.78;;
17686;SDS011;8962;52.538;13.266;2023-07-28T10:41:11;4.22;;;2.63;;
17686;SDS011;8962;52.538;13.266;2023-07-28T10:43:40;3.67;;;2.70;;
17686;SDS011;8962;52.538;13.266;2023-07-28T10:46:09;13.80;;;3.75;;
17686;SDS011;8962;52.538;13.266;2023-07-28T10:48:41;5.20;;;3.47;;
17686;SDS011;8962;52.538;13.266;2023-07-28T10:51:09;3.95;;;2.72;;
17686;SDS011;8962;52.538;13.266;2023-07-28T10:53:37;2.80;;;2.60;;
17686;SDS011;8962;52.538;13.266;2023-07-28T10:56:05;3.60;;;2.70;;
17686;SDS011;8962;52.538;13.266;2023-07-28T10:58:35;5.43;;;2.70;;
17686;SDS011;8962;52.538;13.266;2023-07-28T11:01:03;3.45;;;2.65;;
17686;SDS011;8962;52.538;13.266;2023-07-28T11:03:30;8.20;;;3.03;;
17686;SDS011;8962;52.538;13.266;2023-07-28T11:06:00;3.33;;;2.80;;
17686;SDS011;8962;52.538;13.266;2023-07-28T11:08:27;32.78;;;4.13;;
17686;SDS011;8962;52.538;13.266;2023-07-28T11:10:55;25.13;;;4.32;;
17686;SDS011;8962;52.538;13.266;2023-07-28T11:13:22;6.20;;;3.30;;
17686;SDS011;8962;52.538;13.266;2023-07-28T11:15:51;5.88;;;3.25;;
17686;SDS011;8962;52.538;13.266;2023-07-28T11:18:20;4.72;;;3.40;;
17686;SDS011;8962;52.538;13.266;2023-07-28T11:20:47;5.35;;;3.33;;
17686;SDS011;8962;52.538;13.266;2023-07-28T11:23:16;7.15;;;3.00;;
17686;SDS011;8962;52.538;13.266;2023-07-28T11:25:43;6.80;;;3.60;;
17686;SDS011;8962;52.538;13.266;2023-07-28T11:28:12;4.93;;;3.92;;
17686;SDS011;8962;52.538;13.266;2023-07-28T11:30:40;5.35;;;3.80;;
17686;SDS011;8962;52.538;13.266;2023-07-28T11:33:10;4.10;;;3.30;;
17686;SDS011;8962;52.538;13.266;2023-07-28T11:35:38;4.47;;;3.65;;
17686;SDS011;8962;52.538;13.266;2023-07-28T11:38:08;5.40;;;3.70;;
17686;SDS011;8962;52.538;13.266;2023-07-28T11:40:37;4.05;;;3.65;;
17686;SDS011;8962;52.538;13.266;2023-07-28T11:43:05;3.80;;;3.25;;
17686;SDS011;8962;52.538;13.266;2023-07-28T11:45:33;6.25;;;3.65;;
17686;SDS011;8962;52.538;13.266;2023-07-28T11:48:01;3.78;;;2.83;;
17686;SDS011;8962;52.538;13.266;2023-07-28T11:50:31;3.22;;;2.90;;
17686;SDS011;8962;52.538;13.266;2023-07-28T11:53:01;3.75;;;2.70;;
17686;SDS011;8962;52.538;13.266;2023-07-28T11:55:31;2.70;;;2.50;;
17686;SDS011;8962;52.538;13.266;2023-07-28T11:58:00;3.05;;;2.75;;
17686;SDS011;8962;52.538;13.266;2023-07-28T12:00:30;3.40;;;2.47;;
17686;SDS011;8962;52.538;13.266;2023-07-28T12:03:06;4.50;;;2.70;;
17686;SDS011;8962;52.538;13.266;2023-07-28T12:05:36;2.10;;;1.90;;
17686;SDS011;8962;52.538;13.266;2023-07-28T12:08:04;1.85;;;1.65;;
17686;SDS011;8962;52.538;13.266;2023-07-28T12:10:34;1.70;;;1.60;;
17686;SDS011;8962;52.538;13.266;2023-07-28T12:13:07;2.00;;;1.80;;
17686;SDS011;8962;52.538;13.266;2023-07-28T12:15:40;3.17;;;1.90;;
17686;SDS011;8962;52.538;13.266;2023-07-28T12:18:09;3.28;;;1.95;;
17686;SDS011;8962;52.538;13.266;2023-07-28T12:20:44;2.00;;;1.80;;
17686;SDS011;8962;52.538;13.266;2023-07-28T12:23:13;3.00;;;1.90;;
17686;SDS011;8962;52.538;13.266;2023-07-28T12:25:41;3.90;;;1.98;;
17686;SDS011;8962;52.538;13.266;2023-07-28T12:28:10;2.70;;;2.15;;
17686;SDS011;8962;52.538;13.266;2023-07-28T12:30:38;2.45;;;1.98;;
17686;SDS011;8962;52.538;13.266;2023-07-28T12:33:06;2.65;;;1.88;;
17686;SDS011;8962;52.538;13.266;2023-07-28T12:35:33;3.25;;;2.05;;
17686;SDS011;8962;52.538;13.266;2023-07-28T12:38:01;2.60;;;2.17;;
17686;SDS011;8962;52.538;13.266;2023-07-28T12:40:31;3.70;;;2.70;;
17686;SDS011;8962;52.538;13.266;2023-07-28T12:42:59;4.22;;;2.78;;
17686;SDS011;8962;52.538;13.266;2023-07-28T12:45:32;4.28;;;2.72;;
17686;SDS011;8962;52.538;13.266;2023-07-28T12:47:59;4.35;;;2.60;;
17686;SDS011;8962;52.538;13.266;2023-07-28T12:50:27;2.97;;;2.35;;
17686;SDS011;8962;52.538;13.266;2023-07-28T12:52:54;2.75;;;2.55;;
17686;SDS011;8962;52.538;13.266;2023-07-28T12:55:22;5.25;;;2.50;;
17686;SDS011;8962;52.538;13.266;2023-07-28T12:57:52;2.60;;;2.40;;
17686;SDS011;8962;52.538;13.266;2023-07-28T13:00:20;2.55;;;2.35;;
17686;SDS011;8962;52.538;13.266;2023-07-28T13:02:48;2.60;;;2.40;;
17686;SDS011;8962;52.538;13.266;2023-07-28T13:05:15;2.90;;;2.40;;
17686;SDS011;8962;52.538;13.266;2023-07-28T13:07:43;2.92;;;2.30;;
17686;SDS011;8962;52.538;13.266;2023-07-28T13:10:11;2.15;;;1.65;;
17686;SDS011;8962;52.538;13.266;2023-07-28T13:12:38;3.47;;;2.33;;
17686;SDS011;8962;52.538;13.266;2023-07-28T13:15:06;2.67;;;2.30;;
17686;SDS011;8962;52.538;13.266;2023-07-28T13:17:34;2.25;;;2.08;;
17686;SDS011;8962;52.538;13.266;2023-07-28T13:20:02;2.60;;;2.20;;
17686;SDS011;8962;52.538;13.266;2023-07-28T13:22:32;2.70;;;2.50;;
17686;SDS011;8962;52.538;13.266;2023-07-28T13:24:59;2.60;;;2.40;;
17686;SDS011;8962;52.538;13.266;2023-07-28T13:27:28;3.03;;;2.35;;
17686;SDS011;8962;52.538;13.266;2023-07-28T13:29:56;3.90;;;2.50;;
17686;SDS011;8962;52.538;13.266;2023-07-28T13:32:24;4.53;;;2.33;;
17686;SDS011;8962;52.538;13.266;2023-07-28T13:34:52;4.80;;;2.78;;
17686;SDS011;8962;52.538;13.266;2023-07-28T13:37:21;2.47;;;2.13;;
17686;SDS011;8962;52.538;13.266;2023-07-28T13:39:48;2.90;;;2.20;;
17686;SDS011;8962;52.538;13.266;2023-07-28T13:42:17;2.40;;;2.20;;
17686;SDS011;8962;52.538;13.266;2023-07-28T13:44:44;3.30;;;2.30;;
17686;SDS011;8962;52.538;13.266;2023-07-28T13:47:11;6.60;;;2.70;;
17686;SDS011;8962;52.538;13.266;2023-07-28T13:49:39;3.92;;;2.40;;
17686;SDS011;8962;52.538;13.266;2023-07-28T13:52:06;4.28;;;2.45;;
17686;SDS011;8962;52.538;13.266;2023-07-28T13:54:36;3.13;;;2.42;;
17686;SDS011;8962;52.538;13.266;2023-07-28T13:57:03;2.58;;;2.38;;
17686;SDS011;8962;52.538;13.266;2023-07-28T13:59:31;4.93;;;2.35;;
17686;SDS011;8962;52.538;13.266;2023-07-28T14:01:58;5.80;;;2.78;;
17686;SDS011;8962;52.538;13.266;2023-07-28T14:04:27;2.45;;;2.10;;
17686;SDS011;8962;52.538;13.266;2023-07-28T14:06:54;6.72;;;4.35;;
17686;SDS011;8962;52.538;13.266;2023-07-28T14:09:22;8.63;;;6.22;;
17686;SDS011;8962;52.538;13.266;2023-07-28T14:11:50;10.05;;;5.82;;
17686;SDS011;8962;52.538;13.266;2023-07-28T14:14:17;8.98;;;5.07;;
17686;SDS011;8962;52.538;13.266;2023-07-28T14:16:45;9.93;;;5.82;;
17686;SDS011;8962;52.538;13.266;2023-07-28T14:19:12;3.15;;;2.35;;
17686;SDS011;8962;52.538;13.266;2023-07-28T14:21:39;3.92;;;2.80;;
17686;SDS011;8962;52.538;13.266;2023-07-28T14:24:07;2.92;;;1.73;;
17686;SDS011;8962;52.538;13.266;2023-07-28T14:26:35;2.05;;;1.63;;
17686;SDS011;8962;52.538;13.266;2023-07-28T14:29:04;1.73;;;1.38;;
17686;SDS011;8962;52.538;13.266;2023-07-28T14:31:32;2.83;;;2.03;;
17686;SDS011;8962;52.538;13.266;2023-07-28T14:33:59;3.65;;;1.83;;
17686;SDS011;8962;52.538;13.266;2023-07-28T14:36:26;2.15;;;1.60;;
17686;SDS011;8962;52.538;13.266;2023-07-28T14:38:53;2.00;;;1.50;;
17686;SDS011;8962;52.538;13.266;2023-07-28T14:41:20;1.98;;;1.50;;
17686;SDS011;8962;52.538;13.266;2023-07-28T14:43:47;2.25;;;1.50;;
17686;SDS011;8962;52.538;13.266;2023-07-28T14:46:16;2.65;;;1.45;;
17686;SDS011;8962;52.538;13.266;2023-07-28T14:48:43;1.35;;;1.00;;
17686;SDS011;8962;52.538;13.266;2023-07-28T14:51:10;1.55;;;1.40;;
17686;SDS011;8962;52.538;13.266;2023-07-28T14:53:38;1.83;;;1.25;;
17686;SDS011;8962;52.538;13.266;2023-07-28T14:56:06;2.25;;;1.35;;